Nekoma, Kansas
Current Conditions -  °F | °C
As of 5:55 PM on Friday 19 Dec 2014 (Local Time) from KHYS Reporting Station
Clear Clear  
Wind Chill: 32°   Ceiling: Unl
Heat Index: 39°   Visibility: 10mi
Dew Point: 28°   Wind: 10mph
Humidity: 65%   Direction: 200°SSW
Pressure: 30.09"   Gusts: NA
Location:  38.47°N, 99.44°W
Report Text: KHYS 192355Z AUTO 20009KT 10SM CLR 04/M02 A3009 RMK AO1 10080 20040 400801010 54000
Loading
Personal Weather Stations






























Interactive Weather Map New forecast layout! Learn more

10-Day Weather Forecast

Advertisements
Track Severe Weather on mobile